Time;durP1;ratioP1;P1;durP2;ratioP2;P2;SDS_P1;SDS_P2;PMS_P1;PMS_P2;Temp;Humidity;BMP_temperature;BMP_pressure;BME280_temperature;BME280_humidity;BME280_pressure;Samples;Min_cycle;Max_cycle;Signal;HPM_P1;HPM_P2
2021/03/15 00:00:09;;;;;;;6.25;2.00;;;;;;;;;;5006728;28;20400;-70
2021/03/15 00:02:35;;;;;;;6.32;2.20;;;;;;;;;;5016112;28;20419;-71
2021/03/15 00:05:01;;;;;;;5.82;1.70;;;;;;;;;;5007307;28;20733;-70
2021/03/15 00:07:27;;;;;;;5.18;1.70;;;;;;;;;;5007235;28;20413;-70
2021/03/15 00:09:53;;;;;;;4.40;1.60;;;;;;;;;;5025362;28;20407;-71
2021/03/15 00:12:19;;;;;;;5.35;1.70;;;;;;;;;;5026755;28;20434;-71
2021/03/15 00:14:45;;;;;;;7.03;1.55;;;;;;;;;;5025784;28;20409;-71
2021/03/15 00:17:11;;;;;;;5.23;1.93;;;;;;;;;;5010096;28;20426;-70
2021/03/15 00:19:37;;;;;;;6.53;1.80;;;;;;;;;;5024517;28;20403;-71
2021/03/15 00:22:03;;;;;;;5.50;1.60;;;;;;;;;;5026597;28;20478;-71
2021/03/15 00:24:29;;;;;;;3.22;1.40;;;;;;;;;;5024644;28;20398;-71
2021/03/15 00:26:55;;;;;;;4.55;1.50;;;;;;;;;;5027039;28;20401;-70
2021/03/15 00:29:21;;;;;;;4.82;1.70;;;;;;;;;;5026310;28;20399;-70
2021/03/15 00:31:48;;;;;;;5.25;1.80;;;;;;;;;;5026315;28;20403;-71
2021/03/15 00:34:13;;;;;;;4.60;1.58;;;;;;;;;;5025138;28;20966;-70
2021/03/15 00:36:39;;;;;;;4.07;1.45;;;;;;;;;;5026987;28;20474;-71
2021/03/15 00:39:05;;;;;;;4.17;1.50;;;;;;;;;;5009191;28;20876;-71
2021/03/15 00:41:31;;;;;;;6.22;1.63;;;;;;;;;;5026085;28;20402;-69
2021/03/15 00:43:57;;;;;;;2.90;1.40;;;;;;;;;;5030417;28;20398;-70
2021/03/15 00:46:23;;;;;;;4.57;1.60;;;;;;;;;;5012699;28;20409;-70
2021/03/15 00:48:49;;;;;;;4.82;1.67;;;;;;;;;;5013035;28;20411;-71
2021/03/15 00:51:15;;;;;;;3.58;1.40;;;;;;;;;;5028376;28;20403;-71
2021/03/15 00:53:41;;;;;;;3.80;1.48;;;;;;;;;;5030048;28;20904;-71
2021/03/15 00:56:07;;;;;;;3.88;1.42;;;;;;;;;;5012334;28;20399;-71
2021/03/15 00:58:33;;;;;;;4.00;1.48;;;;;;;;;;5029696;28;20403;-71
2021/03/15 01:00:59;;;;;;;4.23;1.40;;;;;;;;;;5027792;28;20411;-71
2021/03/15 01:03:25;;;;;;;5.20;1.45;;;;;;;;;;5022483;28;20434;-70
2021/03/15 01:05:53;;;;;;;4.55;1.60;;;;;;;;;;5030388;28;20394;-71
2021/03/15 01:08:19;;;;;;;3.90;1.60;;;;;;;;;;5029772;28;20395;-71
2021/03/15 01:10:46;;;;;;;4.10;1.45;;;;;;;;;;5029389;28;20413;-71
2021/03/15 01:13:12;;;;;;;4.18;1.50;;;;;;;;;;5030673;28;20449;-71
2021/03/15 01:15:39;;;;;;;3.55;1.50;;;;;;;;;;5030057;28;20395;-71
2021/03/15 01:18:05;;;;;;;4.95;1.40;;;;;;;;;;5029160;28;20435;-70
2021/03/15 01:20:31;;;;;;;4.65;1.70;;;;;;;;;;5005248;28;20414;-71
2021/03/15 01:22:57;;;;;;;4.50;1.60;;;;;;;;;;5030502;28;20425;-71
2021/03/15 01:25:43;;;;;;;4.13;1.80;;;;;;;;;;5011115;28;20414;-70
2021/03/15 01:28:11;;;;;;;3.92;1.50;;;;;;;;;;5028205;28;20415;-71
2021/03/15 01:30:37;;;;;;;5.20;1.65;;;;;;;;;;5028647;28;20960;-70
2021/03/15 01:33:04;;;;;;;6.20;1.95;;;;;;;;;;5029739;28;20888;-71
2021/03/15 01:35:32;;;;;;;6.35;1.92;;;;;;;;;;5011649;28;20445;-70
2021/03/15 01:37:59;;;;;;;5.00;1.90;;;;;;;;;;5028438;28;20947;-70
2021/03/15 01:40:25;;;;;;;5.22;1.80;;;;;;;;;;5029740;28;20429;-70
2021/03/15 01:42:51;;;;;;;3.80;1.70;;;;;;;;;;5011487;28;20411;-71
2021/03/15 01:45:17;;;;;;;4.57;1.92;;;;;;;;;;5012555;28;20395;-70
2021/03/15 01:47:44;;;;;;;4.97;1.80;;;;;;;;;;5028734;28;20411;-70
2021/03/15 01:50:12;;;;;;;4.10;1.73;;;;;;;;;;5027602;28;20395;-71
2021/03/15 01:52:39;;;;;;;4.45;1.95;;;;;;;;;;5028493;28;20395;-72
2021/03/15 01:55:05;;;;;;;4.75;2.00;;;;;;;;;;5028787;28;20392;-71
2021/03/15 01:57:32;;;;;;;4.65;1.88;;;;;;;;;;5011109;28;20437;-71
2021/03/15 01:59:58;;;;;;;4.43;1.85;;;;;;;;;;5029968;28;20398;-70
2021/03/15 02:02:24;;;;;;;5.15;1.95;;;;;;;;;;5018710;28;20417;-71
2021/03/15 02:04:50;;;;;;;5.00;2.15;;;;;;;;;;5008761;28;20850;-71
2021/03/15 02:07:16;;;;;;;4.65;1.80;;;;;;;;;;5008393;28;20405;-71
2021/03/15 02:09:42;;;;;;;3.95;1.90;;;;;;;;;;5008632;28;20419;-71
2021/03/15 02:12:21;;;;;;;4.05;1.98;;;;;;;;;;5007166;28;20467;-70
2021/03/15 02:15:05;;;;;;;5.25;2.17;;;;;;;;;;5009207;28;20505;-71
2021/03/15 02:17:31;;;;;;;4.93;2.10;;;;;;;;;;5007188;28;20429;-71
2021/03/15 02:19:57;;;;;;;4.13;1.80;;;;;;;;;;5006600;28;21015;-70
2021/03/15 02:22:39;;;;;;;7.38;2.42;;;;;;;;;;5008497;28;20412;-70
2021/03/15 02:25:20;;;;;;;5.80;2.45;;;;;;;;;;5006535;28;20413;-70
2021/03/15 02:27:46;;;;;;;4.90;2.43;;;;;;;;;;5006456;28;20489;-71
2021/03/15 02:30:15;;;;;;;5.88;2.50;;;;;;;;;;4991146;28;20412;-70
2021/03/15 02:33:20;;;;;;;6.88;2.95;;;;;;;;;;5009014;28;20563;-70
2021/03/15 02:35:47;;;;;;;6.10;3.30;;;;;;;;;;4929126;29;20408;-71
2021/03/15 02:38:13;;;;;;;6.75;3.13;;;;;;;;;;4928297;29;20466;-72
2021/03/15 02:40:45;;;;;;;6.78;3.40;;;;;;;;;;4965154;28;20654;-71
2021/03/15 02:43:37;;;;;;;7.00;3.50;;;;;;;;;;5006956;28;20408;-70
2021/03/15 02:46:04;;;;;;;8.90;4.28;;;;;;;;;;4977378;28;20412;-71
2021/03/15 02:48:31;;;;;;;7.47;3.97;;;;;;;;;;5008025;28;20404;-71
2021/03/15 02:50:58;;;;;;;7.53;4.32;;;;;;;;;;4993199;28;20401;-71
2021/03/15 02:53:26;;;;;;;11.30;5.93;;;;;;;;;;5008351;28;20467;-71
2021/03/15 02:55:54;;;;;;;11.38;5.90;;;;;;;;;;5005975;28;20471;-70
2021/03/15 02:58:21;;;;;;;10.53;5.73;;;;;;;;;;5009575;28;21921;-70
2021/03/15 03:00:47;;;;;;;10.13;5.77;;;;;;;;;;5006916;28;20828;-70
2021/03/15 03:03:14;;;;;;;12.90;6.43;;;;;;;;;;5021085;28;20486;-71
2021/03/15 03:05:41;;;;;;;10.68;6.85;;;;;;;;;;5025886;28;20418;-71
2021/03/15 03:08:08;;;;;;;12.45;7.10;;;;;;;;;;5026435;28;20537;-71
2021/03/15 03:10:34;;;;;;;12.48;7.28;;;;;;;;;;5026775;28;20483;-71
2021/03/15 03:13:01;;;;;;;15.95;8.05;;;;;;;;;;5014553;28;20415;-71
2021/03/15 03:15:30;;;;;;;12.50;7.32;;;;;;;;;;5028043;28;20383;-70
2021/03/15 03:17:57;;;;;;;14.45;7.80;;;;;;;;;;5025741;28;20434;-71
2021/03/15 03:20:24;;;;;;;12.48;7.28;;;;;;;;;;5027835;28;20920;-70
2021/03/15 03:22:52;;;;;;;13.35;7.55;;;;;;;;;;5026852;28;20403;-70
2021/03/15 03:25:20;;;;;;;15.02;7.78;;;;;;;;;;5030073;28;20432;-71
2021/03/15 03:27:47;;;;;;;13.50;6.72;;;;;;;;;;5025873;28;20398;-70
2021/03/15 03:30:14;;;;;;;14.00;7.65;;;;;;;;;;5026678;28;20410;-70
2021/03/15 03:32:42;;;;;;;17.00;7.90;;;;;;;;;;5026150;28;20434;-70
2021/03/15 03:35:08;;;;;;;15.25;7.97;;;;;;;;;;5015490;28;20737;-71
2021/03/15 03:37:35;;;;;;;14.73;7.47;;;;;;;;;;5028792;28;20431;-70
2021/03/15 03:40:01;;;;;;;16.03;7.00;;;;;;;;;;5027601;28;20418;-70
2021/03/15 03:42:27;;;;;;;16.00;7.63;;;;;;;;;;5025458;28;20407;-71
2021/03/15 03:44:54;;;;;;;17.00;7.13;;;;;;;;;;5028125;28;20461;-70
2021/03/15 03:47:20;;;;;;;15.60;6.37;;;;;;;;;;5027063;28;20471;-71
2021/03/15 03:49:47;;;;;;;15.77;6.70;;;;;;;;;;5022023;28;20826;-70
2021/03/15 03:52:13;;;;;;;13.18;6.88;;;;;;;;;;5025426;28;20410;-71
2021/03/15 03:54:43;;;;;;;15.55;6.05;;;;;;;;;;5029071;28;20923;-70
2021/03/15 03:57:09;;;;;;;15.15;5.57;;;;;;;;;;5027310;28;20801;-71
2021/03/15 03:59:38;;;;;;;12.60;5.85;;;;;;;;;;5027995;28;20418;-71
2021/03/15 04:02:04;;;;;;;14.85;5.63;;;;;;;;;;5025320;28;20904;-70
2021/03/15 04:04:37;;;;;;;12.70;5.50;;;;;;;;;;5006371;28;20425;-71
2021/03/15 04:07:04;;;;;;;13.23;5.20;;;;;;;;;;5006477;28;20404;-72
2021/03/15 04:09:31;;;;;;;15.15;5.40;;;;;;;;;;5010421;28;20403;-70
2021/03/15 04:12:06;;;;;;;14.45;5.65;;;;;;;;;;5012062;28;21193;-70
2021/03/15 04:14:36;;;;;;;12.15;5.07;;;;;;;;;;5007716;28;20785;-71
2021/03/15 04:17:04;;;;;;;12.32;4.47;;;;;;;;;;5003600;28;20452;-70
2021/03/15 04:19:33;;;;;;;14.45;4.82;;;;;;;;;;5009816;28;20400;-71
2021/03/15 04:22:05;;;;;;;11.23;4.63;;;;;;;;;;5010396;28;20496;-70
2021/03/15 04:24:31;;;;;;;13.68;5.13;;;;;;;;;;5009535;28;20404;-71
2021/03/15 04:26:58;;;;;;;12.90;5.00;;;;;;;;;;5003716;28;20408;-71
2021/03/15 04:29:26;;;;;;;12.55;4.30;;;;;;;;;;5010633;28;20466;-70
2021/03/15 04:31:52;;;;;;;13.73;4.88;;;;;;;;;;5003454;28;20470;-71
2021/03/15 04:34:18;;;;;;;13.68;4.75;;;;;;;;;;5011526;28;20504;-70
2021/03/15 04:36:45;;;;;;;12.82;4.63;;;;;;;;;;5009272;28;21094;-70
2021/03/15 04:39:11;;;;;;;14.27;5.03;;;;;;;;;;5009049;28;20408;-71
2021/03/15 04:41:37;;;;;;;16.30;5.05;;;;;;;;;;5003688;28;20890;-71
2021/03/15 04:44:03;;;;;;;14.05;4.75;;;;;;;;;;5009264;28;20400;-70
2021/03/15 04:46:30;;;;;;;14.05;4.88;;;;;;;;;;5009582;28;20384;-72
2021/03/15 04:48:57;;;;;;;12.90;4.80;;;;;;;;;;5005650;28;20951;-70
2021/03/15 04:51:23;;;;;;;15.32;4.85;;;;;;;;;;5013566;28;20465;-71
2021/03/15 04:53:49;;;;;;;16.08;5.00;;;;;;;;;;5008405;28;20485;-71
2021/03/15 04:56:16;;;;;;;15.43;4.88;;;;;;;;;;5011449;28;20749;-70
2021/03/15 04:58:44;;;;;;;12.63;4.53;;;;;;;;;;5015344;28;20424;-71
2021/03/15 05:01:11;;;;;;;15.20;5.00;;;;;;;;;;5007310;28;20917;-71
2021/03/15 05:03:38;;;;;;;12.45;5.00;;;;;;;;;;5021272;28;20414;-71
2021/03/15 05:06:06;;;;;;;12.85;5.05;;;;;;;;;;5032377;28;21049;-70
2021/03/15 05:08:33;;;;;;;12.52;4.38;;;;;;;;;;5031176;28;20468;-70
2021/03/15 05:11:01;;;;;;;12.43;4.40;;;;;;;;;;5029940;28;20391;-70
2021/03/15 05:13:27;;;;;;;15.70;5.00;;;;;;;;;;5029436;28;20775;-70
2021/03/15 05:15:53;;;;;;;11.68;4.93;;;;;;;;;;5029493;28;20729;-70
2021/03/15 05:18:21;;;;;;;10.90;4.38;;;;;;;;;;5022468;28;20497;-71
2021/03/15 05:20:47;;;;;;;14.05;4.90;;;;;;;;;;5029127;28;20402;-70
2021/03/15 05:23:14;;;;;;;17.67;5.10;;;;;;;;;;5028278;28;20435;-71
2021/03/15 05:25:44;;;;;;;13.57;4.93;;;;;;;;;;5025741;28;20402;-70
2021/03/15 05:28:11;;;;;;;12.25;4.28;;;;;;;;;;5010608;28;20449;-72
2021/03/15 05:30:37;;;;;;;16.85;5.40;;;;;;;;;;5029607;28;20399;-71
2021/03/15 05:33:04;;;;;;;15.88;5.28;;;;;;;;;;5028863;28;20581;-70
2021/03/15 05:35:31;;;;;;;14.15;5.00;;;;;;;;;;5028935;28;20391;-71
2021/03/15 05:37:58;;;;;;;14.57;4.80;;;;;;;;;;5028484;28;20457;-70
2021/03/15 05:40:25;;;;;;;13.52;4.65;;;;;;;;;;5010296;28;20407;-70
2021/03/15 05:43:10;;;;;;;12.32;4.90;;;;;;;;;;5027787;28;20399;-71
2021/03/15 05:45:36;;;;;;;13.73;5.10;;;;;;;;;;5029682;28;20480;-70
2021/03/15 05:48:21;;;;;;;13.60;4.80;;;;;;;;;;5027974;28;20395;-71
2021/03/15 05:51:05;;;;;;;15.82;5.00;;;;;;;;;;5023044;28;21003;-70
2021/03/15 05:53:42;;;;;;;12.50;4.75;;;;;;;;;;5024666;28;20416;-70
2021/03/15 05:56:14;;;;;;;13.03;5.00;;;;;;;;;;5025057;28;20490;-71
2021/03/15 05:58:52;;;;;;;12.75;4.75;;;;;;;;;;5028418;28;20534;-70
2021/03/15 06:01:37;;;;;;;12.93;4.68;;;;;;;;;;5027704;28;20497;-71
2021/03/15 06:04:22;;;;;;;13.97;4.80;;;;;;;;;;5015154;28;20429;-70
2021/03/15 06:06:49;;;;;;;11.45;4.68;;;;;;;;;;5008157;28;20425;-71
2021/03/15 06:09:19;;;;;;;15.83;4.90;;;;;;;;;;5009361;28;20489;-70
2021/03/15 06:11:55;;;;;;;16.45;5.03;;;;;;;;;;5008905;28;20474;-70
2021/03/15 06:14:22;;;;;;;13.82;4.75;;;;;;;;;;5007604;28;20432;-70
2021/03/15 06:16:49;;;;;;;13.35;4.80;;;;;;;;;;5007686;28;20416;-70
2021/03/15 06:19:16;;;;;;;13.93;4.55;;;;;;;;;;5008636;28;20432;-70
2021/03/15 06:21:42;;;;;;;13.98;4.38;;;;;;;;;;5009535;28;21005;-70
2021/03/15 06:24:09;;;;;;;17.48;4.82;;;;;;;;;;5008650;28;20888;-70
2021/03/15 06:26:35;;;;;;;15.57;4.90;;;;;;;;;;5006045;28;20401;-71
2021/03/15 06:29:01;;;;;;;16.13;4.40;;;;;;;;;;5006521;28;20416;-71
2021/03/15 06:31:29;;;;;;;18.58;4.70;;;;;;;;;;5007479;28;20455;-70
2021/03/15 06:33:56;;;;;;;16.88;4.43;;;;;;;;;;5007986;28;20404;-70
2021/03/15 06:36:22;;;;;;;19.05;4.85;;;;;;;;;;5008098;28;20401;-70
2021/03/15 06:38:48;;;;;;;17.85;4.60;;;;;;;;;;5007929;28;20695;-70
2021/03/15 06:41:15;;;;;;;19.13;4.60;;;;;;;;;;5008199;28;20455;-70
2021/03/15 06:43:41;;;;;;;24.70;4.87;;;;;;;;;;5008082;28;20528;-70
2021/03/15 06:46:07;;;;;;;15.18;4.50;;;;;;;;;;5009296;28;20468;-70
2021/03/15 06:48:33;;;;;;;19.25;5.18;;;;;;;;;;5007661;28;20408;-70
2021/03/15 06:50:59;;;;;;;19.40;5.23;;;;;;;;;;5008711;28;20381;-72
2021/03/15 06:53:35;;;;;;;22.75;4.72;;;;;;;;;;4990068;28;20487;-70
2021/03/15 06:56:01;;;;;;;18.65;5.10;;;;;;;;;;5008288;28;20839;-70
2021/03/15 06:58:28;;;;;;;20.52;4.55;;;;;;;;;;5007427;28;20460;-70
2021/03/15 07:01:09;;;;;;;21.43;4.57;;;;;;;;;;5001623;28;20883;-70
2021/03/15 07:03:36;;;;;;;21.63;4.95;;;;;;;;;;5015865;28;20419;-70
2021/03/15 07:06:03;;;;;;;20.40;5.13;;;;;;;;;;5027901;28;20414;-71
2021/03/15 07:08:30;;;;;;;22.38;5.28;;;;;;;;;;5026984;28;20410;-71
2021/03/15 07:10:56;;;;;;;24.52;4.97;;;;;;;;;;5028312;28;20425;-70
2021/03/15 07:13:27;;;;;;;22.13;5.18;;;;;;;;;;5027253;28;20812;-71
2021/03/15 07:15:54;;;;;;;23.33;4.43;;;;;;;;;;5028509;28;20383;-70
2021/03/15 07:18:20;;;;;;;21.20;5.10;;;;;;;;;;5028421;28;20506;-71
2021/03/15 07:20:47;;;;;;;23.08;5.28;;;;;;;;;;5027324;28;20977;-73
2021/03/15 07:23:14;;;;;;;24.45;5.10;;;;;;;;;;5026148;28;20848;-72
2021/03/15 07:25:40;;;;;;;21.60;4.68;;;;;;;;;;5026880;28;20490;-71
2021/03/15 07:28:06;;;;;;;24.25;5.20;;;;;;;;;;5028099;28;20494;-71
2021/03/15 07:30:35;;;;;;;23.23;4.53;;;;;;;;;;5028439;28;20394;-71
2021/03/15 07:33:04;;;;;;;19.08;5.18;;;;;;;;;;5026426;28;20410;-71
2021/03/15 07:35:35;;;;;;;21.80;4.75;;;;;;;;;;5026801;28;20480;-70
2021/03/15 07:38:02;;;;;;;22.25;4.72;;;;;;;;;;5008996;28;20765;-71
2021/03/15 07:40:29;;;;;;;28.92;5.35;;;;;;;;;;5026285;28;20409;-70
2021/03/15 07:42:58;;;;;;;20.23;5.37;;;;;;;;;;5027236;28;20869;-70
2021/03/15 07:45:32;;;;;;;22.85;4.80;;;;;;;;;;5027280;28;20430;-72
2021/03/15 07:48:25;;;;;;;19.98;4.72;;;;;;;;;;5008841;28;20406;-71
2021/03/15 07:51:08;;;;;;;20.47;4.57;;;;;;;;;;5018692;28;20555;-71
2021/03/15 07:53:35;;;;;;;20.35;4.60;;;;;;;;;;5027145;28;20418;-71
2021/03/15 07:56:02;;;;;;;27.83;4.55;;;;;;;;;;5026244;28;20481;-70
2021/03/15 07:58:33;;;;;;;22.10;4.07;;;;;;;;;;5027801;28;20975;-71
2021/03/15 08:01:00;;;;;;;17.55;4.32;;;;;;;;;;5008748;28;22715;-71
2021/03/15 08:03:27;;;;;;;18.63;4.07;;;;;;;;;;5018280;28;20427;-71
2021/03/15 08:05:54;;;;;;;20.48;4.60;;;;;;;;;;5004767;28;20403;-71
2021/03/15 08:08:20;;;;;;;18.92;3.90;;;;;;;;;;5005616;28;21158;-70
2021/03/15 08:10:46;;;;;;;23.65;4.78;;;;;;;;;;5007745;28;20463;-72
2021/03/15 08:13:13;;;;;;;17.33;4.00;;;;;;;;;;5005716;28;20862;-71
2021/03/15 08:15:40;;;;;;;16.05;4.20;;;;;;;;;;5004260;28;20405;-71
2021/03/15 08:18:08;;;;;;;20.40;3.83;;;;;;;;;;5004731;28;20425;-71
2021/03/15 08:20:36;;;;;;;17.67;3.88;;;;;;;;;;5006735;28;20401;-72
2021/03/15 08:23:02;;;;;;;17.23;3.63;;;;;;;;;;5001568;28;20766;-71
2021/03/15 08:25:28;;;;;;;14.02;3.42;;;;;;;;;;5002447;28;20401;-73
2021/03/15 08:27:57;;;;;;;15.98;3.58;;;;;;;;;;5001891;28;20494;-72
2021/03/15 08:30:25;;;;;;;15.73;3.25;;;;;;;;;;5007290;28;20403;-71
2021/03/15 08:32:53;;;;;;;15.27;3.45;;;;;;;;;;4989416;28;20428;-72
2021/03/15 08:35:19;;;;;;;14.80;3.25;;;;;;;;;;5006818;28;20389;-72
2021/03/15 08:37:48;;;;;;;18.17;3.23;;;;;;;;;;5003925;28;20409;-71
2021/03/15 08:40:14;;;;;;;13.90;3.47;;;;;;;;;;5006917;28;20388;-72
2021/03/15 08:42:40;;;;;;;14.15;3.35;;;;;;;;;;5006971;28;20397;-72
2021/03/15 08:45:26;;;;;;;19.02;3.47;;;;;;;;;;5006996;28;20740;-72
2021/03/15 08:47:53;;;;;;;13.13;2.90;;;;;;;;;;5001797;28;20389;-72
2021/03/15 08:50:35;;;;;;;14.50;3.53;;;;;;;;;;5002306;28;21182;-72
2021/03/15 08:53:01;;;;;;;14.90;3.35;;;;;;;;;;5003913;28;20417;-73
2021/03/15 08:55:46;;;;;;;16.27;3.50;;;;;;;;;;5004932;28;20408;-72
2021/03/15 08:58:32;;;;;;;12.40;3.33;;;;;;;;;;5006718;28;20949;-72
2021/03/15 09:00:58;;;;;;;17.50;3.72;;;;;;;;;;5006271;28;20400;-71
2021/03/15 09:03:43;;;;;;;13.65;3.50;;;;;;;;;;5009146;28;20421;-70
2021/03/15 09:06:09;;;;;;;15.93;3.37;;;;;;;;;;5006744;28;20408;-69
2021/03/15 09:08:54;;;;;;;15.27;3.55;;;;;;;;;;5006566;28;20418;-70
2021/03/15 09:11:36;;;;;;;16.10;3.83;;;;;;;;;;5000954;28;20412;-70
2021/03/15 09:14:14;;;;;;;19.15;4.22;;;;;;;;;;5007479;28;20412;-72
2021/03/15 09:16:50;;;;;;;18.40;3.80;;;;;;;;;;5007083;28;20482;-70
2021/03/15 09:19:21;;;;;;;15.05;3.35;;;;;;;;;;5006440;28;20474;-69
2021/03/15 09:21:50;;;;;;;14.93;3.58;;;;;;;;;;5006163;28;20519;-71
2021/03/15 09:24:34;;;;;;;14.63;3.90;;;;;;;;;;5003959;28;20855;-70
2021/03/15 09:27:19;;;;;;;17.27;3.83;;;;;;;;;;4993548;28;20871;-71
2021/03/15 09:29:52;;;;;;;17.90;3.50;;;;;;;;;;5009984;28;20859;-71
2021/03/15 09:32:18;;;;;;;17.48;3.83;;;;;;;;;;5010245;28;20400;-71
2021/03/15 09:34:44;;;;;;;24.43;5.10;;;;;;;;;;5010068;28;20491;-71
2021/03/15 09:37:11;;;;;;;15.05;3.67;;;;;;;;;;5010126;28;20523;-70
2021/03/15 09:39:37;;;;;;;20.40;4.18;;;;;;;;;;5010103;28;20381;-69
2021/03/15 09:42:04;;;;;;;17.05;3.53;;;;;;;;;;4991664;28;20535;-70
2021/03/15 09:44:31;;;;;;;21.00;4.38;;;;;;;;;;5009018;28;20412;-70
2021/03/15 09:46:58;;;;;;;20.42;4.13;;;;;;;;;;5006648;28;20536;-70
2021/03/15 09:49:33;;;;;;;19.67;4.23;;;;;;;;;;5009357;28;21072;-70
2021/03/15 09:52:22;;;;;;;16.88;3.90;;;;;;;;;;5008454;28;20528;-70
2021/03/15 09:54:49;;;;;;;21.58;4.32;;;;;;;;;;5007243;28;20469;-70
2021/03/15 09:57:17;;;;;;;26.92;8.07;;;;;;;;;;5010027;28;20528;-71
2021/03/15 09:59:44;;;;;;;20.73;5.13;;;;;;;;;;5008774;28;20408;-69
2021/03/15 10:02:10;;;;;;;16.52;3.80;;;;;;;;;;5009849;28;20427;-70
2021/03/15 10:04:37;;;;;;;16.17;3.90;;;;;;;;;;5027112;28;20656;-70
2021/03/15 10:07:07;;;;;;;22.05;4.32;;;;;;;;;;5029648;28;20387;-70
2021/03/15 10:09:38;;;;;;;17.10;3.65;;;;;;;;;;5029784;28;20813;-70
2021/03/15 10:12:04;;;;;;;17.75;4.15;;;;;;;;;;5028274;28;20394;-69
2021/03/15 10:14:30;;;;;;;23.85;4.30;;;;;;;;;;5028758;28;20402;-70
2021/03/15 10:17:01;;;;;;;17.48;3.95;;;;;;;;;;5028971;28;20411;-70
2021/03/15 10:19:28;;;;;;;18.50;3.80;;;;;;;;;;5029658;28;20383;-71
2021/03/15 10:21:55;;;;;;;23.75;4.75;;;;;;;;;;5028847;28;20379;-70
2021/03/15 10:24:34;;;;;;;21.13;4.15;;;;;;;;;;5029775;28;20488;-70
2021/03/15 10:27:01;;;;;;;17.50;3.67;;;;;;;;;;5029365;28;20450;-70
2021/03/15 10:29:28;;;;;;;14.40;3.70;;;;;;;;;;5027755;28;20812;-70
2021/03/15 10:31:54;;;;;;;11.95;2.92;;;;;;;;;;5029490;28;20427;-70
2021/03/15 10:34:23;;;;;;;17.63;4.05;;;;;;;;;;5028762;28;20383;-70
2021/03/15 10:36:50;;;;;;;16.23;3.67;;;;;;;;;;5028989;28;20411;-71
2021/03/15 10:39:18;;;;;;;18.27;4.18;;;;;;;;;;5028488;28;21112;-70
2021/03/15 10:41:44;;;;;;;16.57;3.80;;;;;;;;;;5029357;28;20448;-71
2021/03/15 10:44:11;;;;;;;22.90;4.65;;;;;;;;;;5028510;28;20391;-70
2021/03/15 10:46:49;;;;;;;21.65;4.72;;;;;;;;;;5028246;28;20395;-70
2021/03/15 10:49:19;;;;;;;19.50;4.60;;;;;;;;;;5028655;28;20539;-70
2021/03/15 10:51:45;;;;;;;20.70;4.47;;;;;;;;;;5028540;28;20440;-70
2021/03/15 10:54:12;;;;;;;19.17;4.65;;;;;;;;;;5028945;28;20458;-70
2021/03/15 10:56:38;;;;;;;23.27;4.60;;;;;;;;;;5028313;28;20391;-70
2021/03/15 10:59:04;;;;;;;22.50;4.68;;;;;;;;;;5028698;28;20418;-70
2021/03/15 11:01:30;;;;;;;22.60;4.90;;;;;;;;;;5024740;28;20715;-70
2021/03/15 11:04:11;;;;;;;20.40;4.18;;;;;;;;;;5023144;28;20433;-70
2021/03/15 11:06:38;;;;;;;18.48;4.43;;;;;;;;;;5026463;28;20493;-69
2021/03/15 11:09:04;;;;;;;22.60;4.90;;;;;;;;;;5027566;28;20398;-70
2021/03/15 11:11:31;;;;;;;17.42;4.00;;;;;;;;;;5027982;28;20403;-70
2021/03/15 11:14:07;;;;;;;19.52;4.10;;;;;;;;;;5022778;28;20383;-70
2021/03/15 11:16:34;;;;;;;19.10;4.57;;;;;;;;;;5025899;28;20414;-71
2021/03/15 11:19:11;;;;;;;17.77;4.47;;;;;;;;;;5025185;28;20399;-70
2021/03/15 11:21:38;;;;;;;20.83;4.82;;;;;;;;;;5023377;28;20399;-70
2021/03/15 11:24:05;;;;;;;20.88;5.38;;;;;;;;;;5022016;28;20516;-70
2021/03/15 11:26:51;;;;;;;26.52;5.47;;;;;;;;;;5024798;28;20391;-69
2021/03/15 11:29:20;;;;;;;26.02;5.10;;;;;;;;;;5025916;28;20403;-76
2021/03/15 11:31:50;;;;;;;16.38;4.20;;;;;;;;;;5009054;28;20406;-72
2021/03/15 11:34:20;;;;;;;17.83;4.25;;;;;;;;;;5028451;28;20745;-73
2021/03/15 11:36:46;;;;;;;12.95;3.33;;;;;;;;;;5026783;28;20405;-72
2021/03/15 11:39:13;;;;;;;14.50;3.60;;;;;;;;;;5010821;28;20402;-73
2021/03/15 11:41:40;;;;;;;15.65;3.38;;;;;;;;;;5027412;28;20387;-74
2021/03/15 11:44:06;;;;;;;16.02;3.63;;;;;;;;;;5027269;28;20391;-73
2021/03/15 11:46:32;;;;;;;19.77;3.95;;;;;;;;;;5027439;28;20485;-75
2021/03/15 11:48:59;;;;;;;17.33;4.25;;;;;;;;;;5008404;28;20447;-75
2021/03/15 11:51:25;;;;;;;22.55;3.78;;;;;;;;;;5017832;28;20770;-70
2021/03/15 11:53:51;;;;;;;20.83;4.57;;;;;;;;;;5018944;28;20456;-73
2021/03/15 11:56:17;;;;;;;17.63;4.38;;;;;;;;;;5021576;28;20873;-73
2021/03/15 11:58:43;;;;;;;19.77;4.20;;;;;;;;;;5021201;28;20442;-74
2021/03/15 12:01:09;;;;;;;17.92;3.90;;;;;;;;;;5023123;28;20398;-73
2021/03/15 12:03:36;;;;;;;20.10;4.07;;;;;;;;;;5016185;28;20514;-72
2021/03/15 12:06:03;;;;;;;24.83;3.90;;;;;;;;;;5003807;28;20408;-72
2021/03/15 12:08:29;;;;;;;16.00;3.53;;;;;;;;;;5003530;28;21086;-72
2021/03/15 12:10:57;;;;;;;16.27;3.70;;;;;;;;;;5004149;28;20435;-72
2021/03/15 12:13:23;;;;;;;21.57;4.40;;;;;;;;;;5003858;28;20402;-72
2021/03/15 12:15:49;;;;;;;16.88;3.83;;;;;;;;;;5004342;28;20863;-72
2021/03/15 12:18:15;;;;;;;19.13;4.45;;;;;;;;;;5003798;28;20436;-72
2021/03/15 12:20:41;;;;;;;19.55;3.95;;;;;;;;;;5003721;28;20463;-72
2021/03/15 12:23:07;;;;;;;16.65;4.25;;;;;;;;;;5003025;28;20396;-74
2021/03/15 12:25:37;;;;;;;20.08;4.15;;;;;;;;;;4987563;28;20436;-74
2021/03/15 12:28:03;;;;;;;19.15;4.15;;;;;;;;;;5003314;28;20404;-74
2021/03/15 12:30:29;;;;;;;19.38;4.45;;;;;;;;;;5003837;28;20397;-73
2021/03/15 12:32:59;;;;;;;15.23;3.58;;;;;;;;;;4983913;28;20404;-75
2021/03/15 12:35:28;;;;;;;15.38;2.97;;;;;;;;;;4983887;28;20395;-73
2021/03/15 12:37:54;;;;;;;15.30;3.30;;;;;;;;;;5009017;28;20419;-74
2021/03/15 12:40:20;;;;;;;13.48;3.50;;;;;;;;;;5007366;28;20453;-72
2021/03/15 12:42:46;;;;;;;14.70;3.47;;;;;;;;;;5007660;28;20443;-76
2021/03/15 12:45:12;;;;;;;15.63;3.80;;;;;;;;;;5011646;28;20718;-73
2021/03/15 12:47:38;;;;;;;15.77;4.18;;;;;;;;;;5009605;28;20955;-72
2021/03/15 12:50:05;;;;;;;15.70;3.42;;;;;;;;;;5006477;28;20730;-73
2021/03/15 12:52:31;;;;;;;15.43;3.38;;;;;;;;;;5002011;28;20404;-74
2021/03/15 12:54:58;;;;;;;19.35;4.15;;;;;;;;;;5001261;28;20424;-74
2021/03/15 12:57:24;;;;;;;21.40;4.63;;;;;;;;;;4998453;28;20764;-73
2021/03/15 12:59:51;;;;;;;17.13;3.72;;;;;;;;;;4997843;28;20408;-73
2021/03/15 13:02:17;;;;;;;22.85;4.75;;;;;;;;;;5002028;28;20431;-74
2021/03/15 13:04:43;;;;;;;20.08;4.53;;;;;;;;;;5017965;28;20472;-74
2021/03/15 13:07:09;;;;;;;23.92;4.40;;;;;;;;;;5017966;28;20402;-74
2021/03/15 13:09:35;;;;;;;22.77;4.87;;;;;;;;;;5016978;28;20406;-74
2021/03/15 13:12:01;;;;;;;26.23;5.70;;;;;;;;;;5018904;28;20409;-75
2021/03/15 13:14:27;;;;;;;21.00;5.00;;;;;;;;;;5021939;28;20913;-73
2021/03/15 13:16:53;;;;;;;24.90;5.28;;;;;;;;;;5017698;28;20379;-73
2021/03/15 13:19:19;;;;;;;19.92;4.95;;;;;;;;;;5016872;28;20395;-73
2021/03/15 13:21:45;;;;;;;22.90;5.38;;;;;;;;;;5012864;28;20385;-72
2021/03/15 13:24:12;;;;;;;20.83;4.47;;;;;;;;;;4993656;28;20393;-74
2021/03/15 13:26:38;;;;;;;20.13;4.80;;;;;;;;;;5013517;28;20466;-74
2021/03/15 13:29:05;;;;;;;23.48;4.95;;;;;;;;;;5016691;28;21484;-74
2021/03/15 13:31:31;;;;;;;19.85;5.13;;;;;;;;;;5012694;28;20396;-73
2021/03/15 13:33:57;;;;;;;23.03;5.00;;;;;;;;;;5013907;28;20411;-73
2021/03/15 13:36:23;;;;;;;20.92;5.00;;;;;;;;;;5016771;28;20408;-73
2021/03/15 13:38:49;;;;;;;21.90;4.43;;;;;;;;;;5013728;28;20430;-73
2021/03/15 13:41:15;;;;;;;20.45;5.47;;;;;;;;;;5017751;28;20441;-73
2021/03/15 13:43:42;;;;;;;21.33;5.03;;;;;;;;;;5016571;28;20383;-73
2021/03/15 13:46:08;;;;;;;21.20;5.47;;;;;;;;;;5014641;28;20377;-73
2021/03/15 13:48:34;;;;;;;18.45;4.75;;;;;;;;;;5017461;28;20457;-73
2021/03/15 13:51:00;;;;;;;23.17;4.88;;;;;;;;;;5017084;28;20387;-73
2021/03/15 13:53:26;;;;;;;21.45;4.93;;;;;;;;;;5012844;28;20389;-74
2021/03/15 13:55:52;;;;;;;21.65;4.50;;;;;;;;;;5017537;28;20383;-74
2021/03/15 13:58:18;;;;;;;20.50;4.07;;;;;;;;;;5025678;28;20423;-73
2021/03/15 14:00:44;;;;;;;18.20;4.35;;;;;;;;;;5003943;28;20488;-74
2021/03/15 14:03:10;;;;;;;19.08;4.07;;;;;;;;;;5023207;28;20447;-73
2021/03/15 14:05:36;;;;;;;18.48;4.47;;;;;;;;;;5021514;28;20429;-73
2021/03/15 14:08:02;;;;;;;13.25;4.18;;;;;;;;;;5019111;28;20865;-74
2021/03/15 14:10:28;;;;;;;20.25;4.47;;;;;;;;;;5004622;28;20795;-73
2021/03/15 14:12:55;;;;;;;19.20;4.25;;;;;;;;;;5016925;28;20397;-74
2021/03/15 14:15:21;;;;;;;17.00;4.25;;;;;;;;;;5004850;28;20415;-74
2021/03/15 14:17:48;;;;;;;15.57;3.85;;;;;;;;;;5015668;28;20423;-74
2021/03/15 14:20:14;;;;;;;23.55;4.90;;;;;;;;;;5020277;28;20412;-74
2021/03/15 14:22:40;;;;;;;23.85;5.57;;;;;;;;;;5019830;28;20953;-73
2021/03/15 14:25:06;;;;;;;23.90;5.18;;;;;;;;;;5019237;28;20395;-72
2021/03/15 14:27:32;;;;;;;18.10;4.82;;;;;;;;;;5014712;28;20404;-72
2021/03/15 14:29:59;;;;;;;21.17;5.13;;;;;;;;;;5016244;28;20535;-72
2021/03/15 14:32:24;;;;;;;18.05;4.82;;;;;;;;;;5022087;28;20396;-73
2021/03/15 14:34:50;;;;;;;16.73;4.57;;;;;;;;;;5015109;28;20485;-74
2021/03/15 14:37:16;;;;;;;19.53;4.37;;;;;;;;;;5020733;28;20817;-74
2021/03/15 14:39:42;;;;;;;20.63;5.05;;;;;;;;;;5017940;28;20406;-74